Springdale, Canada
Current Conditions -  °F | °C
As of 1:00 AM on Monday 26 Jan 2015 (Local Time) from CYDF Reporting Station
Snow Showers Snow Showers  
Wind Chill: 11°   Ceiling: 5800
Heat Index: 23°   Visibility: 12mi
Dew Point: 12°   Wind: 14mph
Humidity: 63%   Direction: 250°WSW
Pressure: 29.24"   Gusts: 23mph
Location:  49.48°N, 56.1°W
Report Text: CYDF 260400Z 25012G20KT 12SM -SHSN SCT033 OVC058 M05/M11 A2924 RMK SC3SC5 SLP904
Loading
Personal Weather Stations






























Interactive Weather Map New forecast layout! Learn more

10-Day Weather Forecast

Advertisements
Track Severe Weather on mobile